createdAt,value
2018-08-06T00:00:35.814Z,101728.87
2018-08-06T00:03:05.289Z,101727.61
2018-08-06T00:05:34.761Z,101722.99
2018-08-06T00:08:04.178Z,101729.70
2018-08-06T00:10:33.579Z,101735.52
2018-08-06T00:13:03.159Z,101733.83
2018-08-06T00:15:32.543Z,101737.58
2018-08-06T00:18:02.129Z,101715.74
2018-08-06T00:20:31.545Z,101728.25
2018-08-06T00:23:01.030Z,101719.02
2018-08-06T00:25:30.401Z,101723.22
2018-08-06T00:27:59.830Z,101721.94
2018-08-06T00:30:29.166Z,101722.77
2018-08-06T00:32:59.442Z,101718.98
2018-08-06T00:35:28.945Z,101715.20
2018-08-06T00:37:58.425Z,101716.48
2018-08-06T00:40:27.897Z,101710.59
2018-08-06T00:42:57.342Z,101715.20
2018-08-06T00:45:26.793Z,101714.36
2018-08-06T00:47:56.194Z,101713.17
2018-08-06T00:50:25.573Z,101710.63
2018-08-06T00:52:54.952Z,101710.24
2018-08-06T00:55:24.549Z,101706.52
2018-08-06T00:57:53.949Z,101712.38
2018-08-06T01:00:23.380Z,101712.42
2018-08-06T01:02:52.829Z,101712.83
2018-08-06T01:05:22.282Z,101705.71
2018-08-06T01:07:51.790Z,101702.39
2018-08-06T01:10:21.241Z,101701.97
2018-08-06T01:12:50.392Z,101709.60
2018-08-06T01:15:20.139Z,101704.61
2018-08-06T01:17:49.499Z,101713.88
2018-08-06T01:20:18.865Z,101718.48
2018-08-06T01:22:48.341Z,101714.73
2018-08-06T01:25:17.793Z,101709.27
2018-08-06T01:27:47.261Z,101717.27
2018-08-06T01:30:16.717Z,101715.59
2018-08-06T01:32:46.177Z,101710.55
2018-08-06T01:35:15.544Z,101713.92
2018-08-06T01:37:45.131Z,101710.16
2018-08-06T01:40:15.505Z,101711.84
2018-08-06T01:42:45.034Z,101705.96
2018-08-06T01:45:16.693Z,101704.70
2018-08-06T01:47:46.405Z,101703.05
2018-08-06T01:50:16.709Z,101702.62
2018-08-06T01:52:46.089Z,101701.80
2018-08-06T01:55:15.521Z,101705.61
2018-08-06T01:57:44.870Z,101701.83
2018-08-06T02:00:16.119Z,101702.69
2018-08-06T02:02:45.615Z,101701.42
2018-08-06T02:05:15.049Z,101698.09
2018-08-06T02:07:44.482Z,101696.86
2018-08-06T02:10:15.884Z,101703.59
2018-08-06T02:12:46.103Z,101699.80
2018-08-06T02:15:15.505Z,101698.54
2018-08-06T02:17:45.033Z,101696.45
2018-08-06T02:20:16.632Z,101696.02
2018-08-06T02:22:47.185Z,101690.16
2018-08-06T02:25:17.766Z,101688.89
2018-08-06T02:27:47.191Z,101687.22
2018-08-06T02:30:17.037Z,101686.38
2018-08-06T02:32:46.414Z,101688.47
2018-08-06T02:35:16.456Z,101678.85
2018-08-06T02:37:46.542Z,101675.90
2018-08-06T02:40:21.154Z,101675.90
2018-08-06T02:42:50.677Z,101675.89
2018-08-06T02:45:20.329Z,101674.59
2018-08-06T02:47:49.901Z,101669.55
2018-08-06T02:50:19.245Z,101668.27
2018-08-06T02:52:48.744Z,101672.86
2018-08-06T02:55:18.182Z,101669.91
2018-08-06T02:57:47.685Z,101671.14
2018-08-06T03:00:18.617Z,101663.20
2018-08-06T03:02:48.462Z,101661.93
2018-08-06T03:05:19.474Z,101656.47
2018-08-06T03:07:49.011Z,101665.67
2018-08-06T03:10:18.428Z,101661.88
2018-08-06T03:12:48.184Z,101662.70
2018-08-06T03:15:17.614Z,101663.13
2018-08-06T03:17:47.002Z,101663.56
2018-08-06T03:20:16.502Z,101660.17
2018-08-06T03:22:45.928Z,101662.66
2018-08-06T03:25:17.457Z,101660.12
2018-08-06T03:27:46.906Z,101661.37
2018-08-06T03:30:17.776Z,101667.20
2018-08-06T03:32:48.519Z,101661.34
2018-08-06T03:35:17.922Z,101663.84
2018-08-06T03:37:47.408Z,101658.80
2018-08-06T03:40:16.660Z,101659.66
2018-08-06T03:42:46.042Z,101659.23
2018-08-06T03:45:15.480Z,101654.63
2018-08-06T03:47:44.909Z,101659.24
2018-08-06T03:50:14.907Z,101655.91
2018-08-06T03:52:44.600Z,101658.86
2018-08-06T03:55:14.022Z,101659.28
2018-08-06T03:57:43.386Z,101657.58
2018-08-06T04:00:14.694Z,101657.98
2018-08-06T04:02:44.495Z,101652.48
2018-08-06T04:05:15.289Z,101649.56
2018-08-06T04:07:44.749Z,101653.73
2018-08-06T04:10:16.529Z,101654.09
2018-08-06T04:12:46.420Z,101652.84
2018-08-06T04:15:16.037Z,101649.45
2018-08-06T04:17:45.449Z,101647.75
2018-08-06T04:20:15.060Z,101639.75
2018-08-06T04:22:44.572Z,101643.57
2018-08-06T04:25:13.900Z,101642.32
2018-08-06T04:27:43.442Z,101642.73
2018-08-06T04:30:14.197Z,101642.77
2018-08-06T04:32:44.964Z,101648.62
2018-08-06T04:35:14.569Z,101651.59
2018-08-06T04:37:44.827Z,101655.01
2018-08-06T04:40:14.498Z,101653.39
2018-08-06T04:42:44.222Z,101647.56
2018-08-06T04:45:13.646Z,101652.22
2018-08-06T04:47:43.234Z,101650.15
2018-08-06T04:50:14.714Z,101655.66
2018-08-06T04:52:45.393Z,101658.20
2018-08-06T04:55:15.675Z,101654.05
2018-08-06T04:57:45.121Z,101649.03
2018-08-06T05:00:15.813Z,101650.73
2018-08-06T05:02:45.520Z,101652.44
2018-08-06T05:05:14.949Z,101650.33
2018-08-06T05:07:44.380Z,101648.20
2018-08-06T05:10:13.752Z,101648.21
2018-08-06T05:12:43.138Z,101645.25
2018-08-06T05:15:12.622Z,101649.02
2018-08-06T05:17:42.001Z,101647.73
2018-08-06T05:20:11.486Z,101661.13
2018-08-06T05:22:40.886Z,101660.69
2018-08-06T05:25:10.273Z,101656.87
2018-08-06T05:27:39.728Z,101656.46
2018-08-06T05:30:11.750Z,101653.09
2018-08-06T05:32:41.194Z,101653.06
2018-08-06T05:35:10.685Z,101653.49
2018-08-06T05:37:40.077Z,101658.97
2018-08-06T05:40:09.937Z,101655.98
2018-08-06T05:42:39.389Z,101657.20
2018-08-06T05:45:10.315Z,101660.91
2018-08-06T05:47:39.718Z,101659.64
2018-08-06T05:50:12.436Z,101663.37
2018-08-06T05:52:41.768Z,101664.62
2018-08-06T05:55:11.584Z,101664.58
2018-08-06T05:57:46.590Z,101661.19
2018-08-06T06:00:18.757Z,101663.26
2018-08-06T06:02:48.367Z,101664.45
2018-08-06T06:05:17.881Z,101662.31
2018-08-06T06:07:47.084Z,101663.09
2018-08-06T06:10:16.436Z,101665.56
2018-08-06T06:12:45.893Z,101657.95
2018-08-06T06:15:17.133Z,101655.38
2018-08-06T06:17:46.488Z,101656.63
2018-08-06T06:20:16.177Z,101650.27
2018-08-06T06:22:45.883Z,101650.97
2018-08-06T06:25:15.250Z,101650.06
2018-08-06T06:27:45.332Z,101647.06
2018-08-06T06:30:16.702Z,101646.58
2018-08-06T06:32:46.378Z,101649.47
2018-08-06T06:35:15.745Z,101647.75
2018-08-06T06:37:45.465Z,101642.64
2018-08-06T06:40:15.297Z,101645.55
2018-08-06T06:42:44.897Z,101644.19
2018-08-06T06:45:14.266Z,101646.16
2018-08-06T06:47:43.814Z,101651.09
2018-08-06T06:50:13.190Z,101654.32
2018-08-06T06:52:42.631Z,101651.80
2018-08-06T06:55:13.585Z,101650.84
2018-08-06T06:57:43.619Z,101656.23
2018-08-06T07:00:13.006Z,101648.19
2018-08-06T07:02:43.025Z,101641.98
2018-08-06T07:05:12.573Z,101644.28
2018-08-06T07:07:41.973Z,101643.80
2018-08-06T07:10:12.907Z,101635.68
2018-08-06T07:12:42.529Z,101634.03
2018-08-06T07:15:15.829Z,101630.56
2018-08-06T07:17:47.577Z,101627.95
2018-08-06T07:20:19.515Z,101632.42
2018-08-06T07:22:48.859Z,101629.83
2018-08-06T07:25:18.213Z,101626.33
2018-08-06T07:27:47.681Z,101629.68
2018-08-06T07:30:17.150Z,101626.31
2018-08-06T07:32:46.548Z,101626.77
2018-08-06T07:35:16.120Z,101623.26
2018-08-06T07:37:45.593Z,101623.16
2018-08-06T07:40:15.845Z,101621.22
2018-08-06T07:42:45.373Z,101618.27
2018-08-06T07:45:17.242Z,101614.72
2018-08-06T07:47:47.506Z,101615.09
2018-08-06T07:50:17.977Z,101611.92
2018-08-06T07:52:47.872Z,101612.91
2018-08-06T07:55:17.549Z,101619.08
2018-08-06T07:57:47.086Z,101607.67
2018-08-06T08:00:18.630Z,101599.34
2018-08-06T08:02:48.671Z,101602.84
2018-08-06T08:05:19.154Z,101600.16
2018-08-06T08:07:49.403Z,101601.22
2018-08-06T08:10:20.496Z,101597.33
2018-08-06T08:12:49.948Z,101597.28
2018-08-06T08:15:22.757Z,101598.41
2018-08-06T08:17:52.125Z,101601.09
2018-08-06T08:20:21.736Z,101596.95
2018-08-06T08:22:51.072Z,101599.12
2018-08-06T08:25:22.085Z,101599.44
2018-08-06T08:27:51.805Z,101595.24
2018-08-06T08:30:21.506Z,101588.03
2018-08-06T08:32:51.137Z,101589.78
2018-08-06T08:35:20.638Z,101581.96
2018-08-06T08:37:50.102Z,101584.00
2018-08-06T08:40:20.226Z,101584.47
2018-08-06T08:42:49.754Z,101584.97
2018-08-06T08:45:19.470Z,101572.63
2018-08-06T08:47:48.790Z,101578.23
2018-08-06T08:50:20.090Z,101568.91
2018-08-06T08:52:49.534Z,101570.11
2018-08-06T08:55:20.269Z,101564.13
2018-08-06T08:57:49.659Z,101562.54
2018-08-06T09:00:22.790Z,101564.14
2018-08-06T09:02:52.981Z,101564.22
2018-08-06T09:05:22.582Z,101562.40
2018-08-06T09:07:52.212Z,101552.34
2018-08-06T09:10:21.968Z,101552.06
2018-08-06T09:12:51.292Z,101553.69
2018-08-06T09:15:25.381Z,101547.06
2018-08-06T09:17:54.812Z,101550.61
2018-08-06T09:20:25.646Z,101547.85
2018-08-06T09:22:55.129Z,101549.25
2018-08-06T09:25:24.565Z,101538.05
2018-08-06T09:27:53.954Z,101539.27
2018-08-06T09:30:24.431Z,101537.96
2018-08-06T09:32:58.483Z,101537.83
2018-08-06T09:35:27.923Z,101536.44
2018-08-06T09:37:57.277Z,101534.57
2018-08-06T09:40:26.724Z,101527.02
2018-08-06T09:42:56.256Z,101522.77
2018-08-06T09:45:25.710Z,101523.27
2018-08-06T09:47:55.497Z,101526.66
2018-08-06T09:50:24.981Z,101520.45
2018-08-06T09:52:55.025Z,101516.56
2018-08-06T09:55:26.933Z,101516.28
2018-08-06T09:57:56.442Z,101509.46
2018-08-06T10:00:31.206Z,101507.95
2018-08-06T10:03:01.841Z,101506.80
2018-08-06T10:05:31.253Z,101509.92
2018-08-06T10:08:00.778Z,101503.34
2018-08-06T10:10:30.216Z,101508.48
2018-08-06T10:12:59.610Z,101504.76
2018-08-06T10:15:29.041Z,101496.46
2018-08-06T10:17:58.405Z,101503.59
2018-08-06T10:20:27.913Z,101496.55
2018-08-06T10:22:57.353Z,101495.00
2018-08-06T10:25:27.146Z,101492.52
2018-08-06T10:27:56.623Z,101489.63
2018-08-06T10:30:26.146Z,101487.99
2018-08-06T10:32:55.518Z,101487.83
2018-08-06T10:35:24.998Z,101479.53
2018-08-06T10:37:54.618Z,101484.30
2018-08-06T10:40:24.811Z,101478.77
2018-08-06T10:42:54.541Z,101478.23
2018-08-06T10:45:26.982Z,101471.89
2018-08-06T10:47:58.231Z,101469.70
2018-08-06T10:50:28.521Z,101472.48
2018-08-06T10:52:58.158Z,101464.44
2018-08-06T10:55:27.591Z,101465.27
2018-08-06T10:57:58.470Z,101460.63
2018-08-06T11:00:28.187Z,101451.47
2018-08-06T11:02:57.601Z,101452.35
2018-08-06T11:05:27.009Z,101447.08
2018-08-06T11:07:56.436Z,101448.67
2018-08-06T11:10:25.955Z,101445.14
2018-08-06T11:12:58.007Z,101436.61
2018-08-06T11:15:27.901Z,101436.58
2018-08-06T11:17:57.344Z,101430.43
2018-08-06T11:20:26.870Z,101426.20
2018-08-06T11:22:56.345Z,101428.12
2018-08-06T11:25:25.858Z,101421.13
2018-08-06T11:27:55.338Z,101420.66
2018-08-06T11:30:24.967Z,101412.87
2018-08-06T11:32:55.209Z,101407.13
2018-08-06T11:35:24.669Z,101408.64
2018-08-06T11:37:53.807Z,101406.35
2018-08-06T11:40:23.300Z,101400.31
2018-08-06T11:42:53.122Z,101399.15
2018-08-06T11:45:23.613Z,101403.31
2018-08-06T11:47:54.745Z,101393.67
2018-08-06T11:50:24.287Z,101388.45
2018-08-06T11:52:55.053Z,101383.33
2018-08-06T11:55:24.202Z,101378.52
2018-08-06T11:57:53.758Z,101380.33
2018-08-06T12:00:25.087Z,101378.19
2018-08-06T12:02:54.520Z,101365.61
2018-08-06T12:05:24.247Z,101372.06
2018-08-06T12:07:53.837Z,101360.77
2018-08-06T12:10:23.663Z,101355.94
2018-08-06T12:12:53.160Z,101359.88
2018-08-06T12:15:22.736Z,101357.03
2018-08-06T12:17:52.213Z,101356.98
2018-08-06T12:20:22.018Z,101351.86
2018-08-06T12:22:53.573Z,101344.81
2018-08-06T12:25:23.031Z,101343.02
2018-08-06T12:27:52.380Z,101340.86
2018-08-06T12:30:23.770Z,101339.53
2018-08-06T12:32:54.214Z,101326.78
2018-08-06T12:35:24.172Z,101322.34
2018-08-06T12:37:53.629Z,101314.39
2018-08-06T12:40:23.677Z,101315.15
2018-08-06T12:42:55.754Z,101304.50
2018-08-06T12:45:25.534Z,101306.25
2018-08-06T12:47:54.989Z,101302.75
2018-08-06T12:50:24.430Z,101300.73
2018-08-06T12:52:53.862Z,101293.70
2018-08-06T12:55:23.365Z,101287.13
2018-08-06T12:57:52.946Z,101287.07
2018-08-06T13:00:25.558Z,101280.75
2018-08-06T13:02:55.337Z,101280.59
2018-08-06T13:05:25.595Z,101277.37
2018-08-06T13:07:54.967Z,101279.47
2018-08-06T13:10:24.350Z,101265.48
2018-08-06T13:12:54.929Z,101264.97
2018-08-06T13:15:24.585Z,101269.47
2018-08-06T13:17:54.038Z,101263.70
2018-08-06T13:20:23.417Z,101256.00
2018-08-06T13:22:52.821Z,101254.91
2018-08-06T13:25:22.468Z,101258.98
2018-08-06T13:27:52.497Z,101247.81
2018-08-06T13:30:22.271Z,101248.36
2018-08-06T13:32:51.764Z,101243.23
2018-08-06T13:35:21.108Z,101230.54
2018-08-06T13:37:50.799Z,101228.98
2018-08-06T13:40:20.185Z,101233.66
2018-08-06T13:42:49.660Z,101219.83
2018-08-06T13:45:19.662Z,101224.77
2018-08-06T13:47:49.090Z,101222.63
2018-08-06T13:50:18.498Z,101215.05
2018-08-06T13:52:47.861Z,101216.70
2018-08-06T13:55:18.504Z,101209.68
2018-08-06T13:57:49.732Z,101203.27
2018-08-06T14:00:21.470Z,101215.17
2018-08-06T14:02:51.703Z,101198.86
2018-08-06T14:05:21.301Z,101198.69
2018-08-06T14:07:52.050Z,101196.58
2018-08-06T14:10:21.212Z,101188.17
2018-08-06T14:12:50.616Z,101190.25
2018-08-06T14:15:20.066Z,101187.75
2018-08-06T14:17:49.522Z,101185.09
2018-08-06T14:20:19.394Z,101186.02
2018-08-06T14:22:48.885Z,101171.75
2018-08-06T14:25:18.300Z,101168.91
2018-08-06T14:27:47.905Z,101170.61
2018-08-06T14:30:17.893Z,101167.10
2018-08-06T14:32:47.387Z,101174.97
2018-08-06T14:35:17.372Z,101167.75
2018-08-06T14:37:47.221Z,101154.05
2018-08-06T14:40:18.242Z,101158.78
2018-08-06T14:42:48.033Z,101159.16
2018-08-06T14:45:17.514Z,101148.78
2018-08-06T14:47:46.696Z,101146.66
2018-08-06T14:50:16.481Z,101140.07
2018-08-06T14:52:45.993Z,101137.66
2018-08-06T14:55:15.381Z,101139.97
2018-08-06T14:57:45.051Z,101133.91
2018-08-06T15:00:18.913Z,101134.11
2018-08-06T15:02:48.840Z,101131.64
2018-08-06T15:05:18.210Z,101126.83
2018-08-06T15:07:48.227Z,101136.23
2018-08-06T15:10:17.700Z,101127.92
2018-08-06T15:12:47.195Z,101128.68
2018-08-06T15:15:17.815Z,101125.95
2018-08-06T15:17:47.573Z,101123.50
2018-08-06T15:20:18.494Z,101121.67
2018-08-06T15:22:49.246Z,101117.94
2018-08-06T15:25:23.111Z,101113.96
2018-08-06T15:27:53.558Z,101116.09
2018-08-06T15:30:23.777Z,101110.12
2018-08-06T15:32:53.290Z,101114.19
2018-08-06T15:35:23.928Z,101113.11
2018-08-06T15:37:53.508Z,101116.88
2018-08-06T15:40:23.797Z,101107.19
2018-08-06T15:42:53.435Z,101108.17
2018-08-06T15:45:23.060Z,101100.38
2018-08-06T15:47:52.562Z,101096.73
2018-08-06T15:50:22.717Z,101095.13
2018-08-06T15:52:52.197Z,101093.31
2018-08-06T15:55:22.330Z,101090.70
2018-08-06T15:57:51.841Z,101091.33
2018-08-06T16:00:25.453Z,101093.57
2018-08-06T16:02:57.703Z,101088.39
2018-08-06T16:05:27.141Z,101079.39
2018-08-06T16:07:57.253Z,101074.19
2018-08-06T16:10:27.534Z,101070.11
2018-08-06T16:12:57.373Z,101066.89
2018-08-06T16:15:27.782Z,101066.94
2018-08-06T16:17:57.728Z,101062.28
2018-08-06T16:20:27.349Z,101062.58
2018-08-06T16:22:58.198Z,101066.25
2018-08-06T16:25:27.681Z,101070.27
2018-08-06T16:27:57.169Z,101064.64
2018-08-06T16:30:27.290Z,101065.38
2018-08-06T16:32:57.851Z,101059.69
2018-08-06T16:35:29.002Z,101062.79
2018-08-06T16:37:59.074Z,101058.25
2018-08-06T16:40:28.520Z,101061.88
2018-08-06T16:42:57.970Z,101064.13
2018-08-06T16:45:27.545Z,101055.16
2018-08-06T16:47:56.994Z,101054.50
2018-08-06T16:50:26.482Z,101055.92
2018-08-06T16:52:56.538Z,101053.17
2018-08-06T16:55:25.759Z,101052.02
2018-08-06T16:57:55.362Z,101055.40
2018-08-06T17:00:24.942Z,101048.72
2018-08-06T17:02:54.726Z,101054.39
2018-08-06T17:05:23.906Z,101044.54
2018-08-06T17:07:53.962Z,101059.95
2018-08-06T17:10:24.306Z,101049.80
2018-08-06T17:12:55.031Z,101053.73
2018-08-06T17:15:25.249Z,101043.70
2018-08-06T17:17:56.059Z,101042.95
2018-08-06T17:20:26.628Z,101039.89
2018-08-06T17:22:55.880Z,101040.74
2018-08-06T17:25:25.497Z,101046.52
2018-08-06T17:27:55.065Z,101040.93
2018-08-06T17:30:24.222Z,101040.44
2018-08-06T17:32:54.693Z,101044.16
2018-08-06T17:35:24.796Z,101042.64
2018-08-06T17:37:54.419Z,101050.66
2018-08-06T17:40:24.980Z,101046.66
2018-08-06T17:42:54.542Z,101046.76
2018-08-06T17:45:24.509Z,101048.14
2018-08-06T17:47:54.004Z,101048.27
2018-08-06T17:50:24.563Z,101047.52
2018-08-06T17:52:54.841Z,101040.16
2018-08-06T17:55:24.594Z,101044.77
2018-08-06T17:57:54.407Z,101041.20
2018-08-06T18:00:23.604Z,101043.63
2018-08-06T18:02:52.908Z,101037.61
2018-08-06T18:05:22.459Z,101033.13
2018-08-06T18:07:51.797Z,101033.09
2018-08-06T18:10:21.950Z,101031.03
2018-08-06T18:12:51.702Z,101034.34
2018-08-06T18:15:21.110Z,101031.80
2018-08-06T18:17:50.530Z,101034.66
2018-08-06T18:20:21.164Z,101034.41
2018-08-06T18:22:52.553Z,101030.50
2018-08-06T18:25:22.694Z,101027.24
2018-08-06T18:27:52.598Z,101037.14
2018-08-06T18:30:23.041Z,101038.69
2018-08-06T18:32:52.470Z,101034.95
2018-08-06T18:35:21.958Z,101038.52
2018-08-06T18:37:52.124Z,101039.23
2018-08-06T18:40:22.957Z,101038.09
2018-08-06T18:42:52.394Z,101032.65
2018-08-06T18:45:23.758Z,101034.87
2018-08-06T18:47:53.449Z,101035.56
2018-08-06T18:50:23.424Z,101033.94
2018-08-06T18:52:52.870Z,101039.50
2018-08-06T18:55:22.335Z,101038.81
2018-08-06T18:57:51.818Z,101040.06
2018-08-06T19:00:24.159Z,101041.98
2018-08-06T19:02:55.018Z,101041.89
2018-08-06T19:05:25.748Z,101039.33
2018-08-06T19:07:55.350Z,101044.54
2018-08-06T19:10:24.902Z,101044.28
2018-08-06T19:12:59.595Z,101042.49
2018-08-06T19:15:29.639Z,101040.80
2018-08-06T19:18:04.333Z,101040.16
2018-08-06T19:20:34.655Z,101045.44
2018-08-06T19:23:04.172Z,101045.66
2018-08-06T19:25:34.042Z,101049.33
2018-08-06T19:28:04.527Z,101049.30
2018-08-06T19:30:39.152Z,101052.55
2018-08-06T19:33:09.626Z,101054.20
2018-08-06T19:35:39.375Z,101054.37
2018-08-06T19:38:08.925Z,101061.20
2018-08-06T19:40:38.430Z,101057.13
2018-08-06T19:43:13.131Z,101057.59
2018-08-06T19:45:42.557Z,101054.42
2018-08-06T19:48:11.931Z,101056.08
2018-08-06T19:50:43.034Z,101051.06
2018-08-06T19:53:12.474Z,101052.99
2018-08-06T19:55:47.794Z,101053.97
2018-08-06T19:58:17.321Z,101052.41
2018-08-06T20:00:46.729Z,101053.97
2018-08-06T20:03:16.198Z,101044.16
2018-08-06T20:05:45.834Z,101043.91
2018-08-06T20:08:15.291Z,101039.63
2018-08-06T20:10:44.776Z,101041.13
2018-08-06T20:13:14.134Z,101043.97
2018-08-06T20:15:43.542Z,101039.05
2018-08-06T20:18:13.028Z,101037.88
2018-08-06T20:20:42.605Z,101032.42
2018-08-06T20:23:12.150Z,101037.19
2018-08-06T20:25:41.545Z,101033.94
2018-08-06T20:28:11.010Z,101030.90
2018-08-06T20:30:40.502Z,101033.87
2018-08-06T20:33:10.930Z,101037.58
2018-08-06T20:35:40.337Z,101040.02
2018-08-06T20:38:09.753Z,101041.03
2018-08-06T20:40:39.274Z,101038.23
2018-08-06T20:43:08.767Z,101036.61
2018-08-06T20:45:38.111Z,101042.95
2018-08-06T20:48:07.645Z,101040.18
2018-08-06T20:50:37.231Z,101041.36
2018-08-06T20:53:07.189Z,101050.55
2018-08-06T20:55:36.566Z,101049.66
2018-08-06T20:58:06.756Z,101046.10
2018-08-06T21:00:36.240Z,101049.53
2018-08-06T21:03:05.734Z,101045.27
2018-08-06T21:05:35.160Z,101047.95
2018-08-06T21:08:04.805Z,101051.23
2018-08-06T21:10:34.278Z,101047.70
2018-08-06T21:13:03.526Z,101046.87
2018-08-06T21:15:32.962Z,101054.73
2018-08-06T21:18:02.497Z,101050.41
2018-08-06T21:20:32.013Z,101050.42
2018-08-06T21:23:01.528Z,101050.54
2018-08-06T21:25:30.998Z,101053.03
2018-08-06T21:28:00.451Z,101044.05
2018-08-06T21:30:29.869Z,101046.52
2018-08-06T21:32:59.308Z,101045.44
2018-08-06T21:35:29.370Z,101045.32
2018-08-06T21:37:58.777Z,101048.47
2018-08-06T21:40:28.207Z,101044.45
2018-08-06T21:42:57.709Z,101049.06
2018-08-06T21:45:27.194Z,101042.15
2018-08-06T21:47:56.649Z,101037.75
2018-08-06T21:50:26.132Z,101049.19
2018-08-06T21:52:55.662Z,101044.06
2018-08-06T21:55:25.050Z,101046.20
2018-08-06T21:57:54.596Z,101043.39
2018-08-06T22:00:35.295Z,101038.97
2018-08-06T22:03:07.167Z,101042.14
2018-08-06T22:05:36.551Z,101043.53
2018-08-06T22:08:06.021Z,101044.91
2018-08-06T22:10:35.453Z,101041.39
2018-08-06T22:13:05.345Z,101046.22
2018-08-06T22:15:34.735Z,101045.42
2018-08-06T22:18:04.294Z,101046.92
2018-08-06T22:20:33.718Z,101042.59
2018-08-06T22:23:03.165Z,101042.47
2018-08-06T22:25:32.657Z,101040.67
2018-08-06T22:28:02.089Z,101041.64
2018-08-06T22:30:31.325Z,101044.68
2018-08-06T22:33:00.697Z,101040.91
2018-08-06T22:35:30.074Z,101037.70
2018-08-06T22:37:59.555Z,101045.23
2018-08-06T22:40:29.186Z,101040.70
2018-08-06T22:42:58.605Z,101041.55
2018-08-06T22:45:28.121Z,101041.50
2018-08-06T22:47:57.350Z,101039.59
2018-08-06T22:50:26.818Z,101042.06
2018-08-06T22:52:56.208Z,101036.83
2018-08-06T22:55:25.783Z,101041.03
2018-08-06T22:57:55.231Z,101039.89
2018-08-06T23:00:24.597Z,101039.45
2018-08-06T23:02:54.041Z,101042.77
2018-08-06T23:05:23.389Z,101046.83
2018-08-06T23:07:52.726Z,101044.03
2018-08-06T23:10:22.250Z,101047.48
2018-08-06T23:12:51.690Z,101036.52
2018-08-06T23:15:21.082Z,101038.79
2018-08-06T23:17:50.486Z,101043.86
2018-08-06T23:20:19.869Z,101043.58
2018-08-06T23:22:49.238Z,101039.02
2018-08-06T23:25:20.960Z,101039.52
2018-08-06T23:27:50.392Z,101034.55
2018-08-06T23:30:19.861Z,101031.89
2018-08-06T23:32:49.213Z,101037.47
2018-08-06T23:35:18.558Z,101032.48
2018-08-06T23:37:48.110Z,101031.66
2018-08-06T23:40:17.553Z,101032.41
2018-08-06T23:42:46.920Z,101025.88
2018-08-06T23:45:16.730Z,101026.23
2018-08-06T23:47:46.147Z,101020.77
2018-08-06T23:50:15.960Z,101012.55
2018-08-06T23:52:46.337Z,101016.34
2018-08-06T23:55:18.829Z,101016.15
2018-08-06T23:57:49.041Z,101017.73
